Time;durP1;ratioP1;P1;durP2;ratioP2;P2;SDS_P1;SDS_P2;PMS_P1;PMS_P2;Temp;Humidity;BMP_temperature;BMP_pressure;BME280_temperature;BME280_humidity;BME280_pressure;Samples;Min_cycle;Max_cycle;Signal;HPM_P1;HPM_P2
2021/09/03 00:01:38;;;;;;;35.15;26.98;;;23.10;98.30;;;;;;4847153;29;20169;-81
2021/09/03 00:04:04;;;;;;;33.83;26.35;;;23.10;98.30;;;;;;4878941;29;20040;-81
2021/09/03 00:06:30;;;;;;;34.72;27.17;;;23.10;98.40;;;;;;4846883;29;20033;-81
2021/09/03 00:08:56;;;;;;;35.97;27.98;;;23.10;98.40;;;;;;4862296;29;20072;-82
2021/09/03 00:11:21;;;;;;;37.65;28.67;;;23.10;98.40;;;;;;4862366;29;20033;-81
2021/09/03 00:13:47;;;;;;;35.53;27.65;;;23.10;98.40;;;;;;4862539;29;20068;-81
2021/09/03 00:16:13;;;;;;;36.17;28.63;;;23.10;98.40;;;;;;4878855;29;20048;-81
2021/09/03 00:18:39;;;;;;;33.92;28.33;;;23.10;98.40;;;;;;4847070;29;20085;-81
2021/09/03 00:21:05;;;;;;;40.50;29.60;;;23.10;98.40;;;;;;4878691;29;20039;-81
2021/09/03 00:23:30;;;;;;;37.80;29.25;;;23.10;98.40;;;;;;4846618;29;20053;-81
2021/09/03 00:25:56;;;;;;;38.42;29.67;;;23.10;98.40;;;;;;4862142;29;20069;-81
2021/09/03 00:28:22;;;;;;;38.30;30.40;;;23.10;98.40;;;;;;4862369;29;20087;-81
2021/09/03 00:30:48;;;;;;;37.80;29.17;;;23.10;98.40;;;;;;4862392;29;20060;-81
2021/09/03 00:33:13;;;;;;;37.38;29.63;;;23.10;98.40;;;;;;4861792;29;20107;-81
2021/09/03 00:35:40;;;;;;;38.97;30.15;;;23.10;98.40;;;;;;4878983;29;20033;-81
2021/09/03 00:38:05;;;;;;;41.50;31.92;;;23.10;98.40;;;;;;4878973;29;20112;-81
2021/09/03 00:40:31;;;;;;;41.10;32.85;;;23.10;98.50;;;;;;4847085;29;20127;-81
2021/09/03 00:42:57;;;;;;;36.75;30.02;;;23.00;98.50;;;;;;4861723;29;20033;-83
2021/09/03 00:45:23;;;;;;;41.92;32.25;;;23.00;98.60;;;;;;4879293;29;20089;-81
2021/09/03 00:47:48;;;;;;;40.67;31.65;;;22.90;98.60;;;;;;4862281;29;20066;-81
2021/09/03 00:50:14;;;;;;;39.58;31.83;;;22.90;98.60;;;;;;4862009;29;20033;-81
2021/09/03 00:52:40;;;;;;;40.28;31.48;;;22.90;98.70;;;;;;4865093;29;20104;-81
2021/09/03 00:55:07;;;;;;;40.10;31.98;;;22.90;98.70;;;;;;4865113;29;20511;-81
2021/09/03 00:57:33;;;;;;;38.80;31.52;;;22.90;98.80;;;;;;4882592;29;20124;-81
2021/09/03 00:59:59;;;;;;;45.80;33.70;;;22.80;98.80;;;;;;4865132;29;20062;-82
2021/09/03 01:02:24;;;;;;;43.88;33.90;;;22.80;98.80;;;;;;4881912;29;20033;-81
2021/09/03 01:04:50;;;;;;;42.92;33.05;;;22.80;98.80;;;;;;4865808;29;20484;-81
2021/09/03 01:07:16;;;;;;;44.25;33.58;;;22.80;98.80;;;;;;4881738;29;20037;-81
2021/09/03 01:09:42;;;;;;;43.70;31.98;;;22.80;98.90;;;;;;4881974;29;20041;-80
2021/09/03 01:12:08;;;;;;;42.08;33.05;;;22.80;98.90;;;;;;4881567;29;20040;-81
2021/09/03 01:14:34;;;;;;;42.88;33.22;;;22.80;98.90;;;;;;4881762;29;20122;-81
2021/09/03 01:17:00;;;;;;;45.83;34.10;;;22.80;98.90;;;;;;4865074;29;20480;-86
2021/09/03 01:19:25;;;;;;;44.83;34.63;;;22.80;98.90;;;;;;4849902;29;20033;-81
2021/09/03 01:21:52;;;;;;;41.38;32.75;;;22.80;99.00;;;;;;4881412;29;20464;-81
2021/09/03 01:24:19;;;;;;;42.15;33.38;;;22.80;99.00;;;;;;4881006;29;20053;-81
2021/09/03 01:26:45;;;;;;;41.03;32.50;;;22.80;99.00;;;;;;4881747;29;20116;-81
2021/09/03 01:29:12;;;;;;;41.00;32.60;;;22.80;99.00;;;;;;4864630;29;20531;-81
2021/09/03 01:31:38;;;;;;;43.50;33.97;;;22.80;99.00;;;;;;4881582;29;20036;-82
2021/09/03 01:34:04;;;;;;;40.92;32.33;;;22.80;99.00;;;;;;4880937;29;20480;-82
2021/09/03 01:36:30;;;;;;;42.17;33.00;;;22.80;99.00;;;;;;4881737;29;20108;-82
2021/09/03 01:38:57;;;;;;;39.17;30.80;;;22.80;99.00;;;;;;4881441;29;20069;-82
2021/09/03 01:41:23;;;;;;;41.00;32.70;;;22.80;99.10;;;;;;4880794;29;20037;-81
2021/09/03 01:43:49;;;;;;;39.38;32.05;;;22.80;99.10;;;;;;4881090;29;20037;-82
2021/09/03 01:46:14;;;;;;;38.97;31.60;;;22.80;99.10;;;;;;4864254;29;20488;-82
2021/09/03 01:48:40;;;;;;;41.63;31.98;;;22.80;99.10;;;;;;4881347;29;20333;-82
2021/09/03 01:51:06;;;;;;;41.28;32.75;;;22.70;99.10;;;;;;4880634;29;20063;-82
2021/09/03 01:53:32;;;;;;;41.10;31.90;;;22.80;99.10;;;;;;4864509;29;20029;-82
2021/09/03 01:55:58;;;;;;;39.67;31.40;;;22.80;99.10;;;;;;4864814;29;20528;-82
2021/09/03 01:58:24;;;;;;;40.38;32.13;;;22.80;99.10;;;;;;4848718;29;20037;-82
2021/09/03 02:00:49;;;;;;;40.63;30.77;;;22.80;99.10;;;;;;4864314;29;20041;-82
2021/09/03 02:03:15;;;;;;;38.25;31.45;;;22.80;99.10;;;;;;4879757;29;20033;-81
2021/09/03 02:05:42;;;;;;;39.88;31.23;;;22.80;99.10;;;;;;4881107;29;20468;-82
2021/09/03 02:08:07;;;;;;;39.95;31.23;;;22.80;99.10;;;;;;4880666;29;20112;-83
2021/09/03 02:10:33;;;;;;;40.58;31.77;;;22.80;99.10;;;;;;4880644;29;20133;-83
2021/09/03 02:12:59;;;;;;;42.13;32.35;;;22.70;99.10;;;;;;4880598;29;20460;-81
2021/09/03 02:15:25;;;;;;;40.30;30.30;;;22.70;99.10;;;;;;4863895;29;20037;-82
2021/09/03 02:17:50;;;;;;;36.97;29.38;;;22.70;99.10;;;;;;4880487;29;20405;-82
2021/09/03 02:20:16;;;;;;;37.13;29.65;;;22.70;99.10;;;;;;4863821;29;20067;-82
2021/09/03 02:22:42;;;;;;;35.22;28.60;;;22.70;99.10;;;;;;4880507;29;20165;-82
2021/09/03 02:25:08;;;;;;;36.80;30.10;;;22.70;99.10;;;;;;4880546;29;20563;-83
2021/09/03 02:27:34;;;;;;;34.97;27.92;;;22.70;99.10;;;;;;4880544;29;20033;-82
2021/09/03 02:30:00;;;;;;;34.90;28.33;;;22.70;99.10;;;;;;4880383;29;20036;-82
2021/09/03 02:32:25;;;;;;;36.08;28.25;;;22.70;99.20;;;;;;4880257;29;20387;-82
2021/09/03 02:34:51;;;;;;;35.65;28.27;;;22.70;99.10;;;;;;4880273;29;20089;-82
2021/09/03 02:37:17;;;;;;;34.95;28.38;;;22.70;99.10;;;;;;4880134;29;20041;-82
2021/09/03 02:39:42;;;;;;;36.28;28.63;;;22.70;99.10;;;;;;4880506;29;20033;-82
2021/09/03 02:42:08;;;;;;;36.85;28.58;;;22.70;99.10;;;;;;4880256;29;20041;-82
2021/09/03 02:44:35;;;;;;;35.42;28.33;;;22.70;99.10;;;;;;4848129;29;20041;-82
2021/09/03 02:47:01;;;;;;;36.72;28.52;;;22.70;99.10;;;;;;4880236;29;20065;-82
2021/09/03 02:49:26;;;;;;;33.83;27.98;;;22.70;99.10;;;;;;4879910;29;20076;-82
2021/09/03 02:51:52;;;;;;;33.42;27.15;;;22.70;99.10;;;;;;4880239;29;20037;-82
2021/09/03 02:54:17;;;;;;;34.83;27.88;;;22.70;99.10;;;;;;4880109;29;20040;-82
2021/09/03 02:56:43;;;;;;;33.22;26.33;;;22.70;99.10;;;;;;4880026;29;20033;-82
2021/09/03 02:59:09;;;;;;;35.60;28.13;;;22.70;99.10;;;;;;4848099;29;20037;-82
2021/09/03 03:01:34;;;;;;;33.72;26.23;;;22.70;99.10;;;;;;4863035;29;20045;-82
2021/09/03 03:04:00;;;;;;;36.50;28.05;;;22.70;99.10;;;;;;4848060;29;20516;-82
2021/09/03 03:06:26;;;;;;;32.63;26.20;;;22.70;99.10;;;;;;4863391;29;20036;-82
2021/09/03 03:08:51;;;;;;;30.40;25.13;;;22.70;99.10;;;;;;4879668;29;20041;-82
2021/09/03 03:11:17;;;;;;;31.75;25.95;;;22.70;99.10;;;;;;4862928;29;20501;-82
2021/09/03 03:13:47;;;;;;;31.05;25.38;;;22.70;99.10;;;;;;4879466;29;20040;-82
2021/09/03 03:16:16;;;;;;;30.90;25.30;;;22.70;99.10;;;;;;4848279;29;20037;-87
2021/09/03 03:18:42;;;;;;;31.55;25.33;;;22.70;99.10;;;;;;4863329;29;20033;-82
2021/09/03 03:21:08;;;;;;;31.05;25.35;;;22.70;99.20;;;;;;4879577;29;20037;-82
2021/09/03 03:23:34;;;;;;;32.80;26.13;;;22.70;99.20;;;;;;4862409;29;20515;-82
2021/09/03 03:26:02;;;;;;;28.65;24.25;;;22.70;99.10;;;;;;4879370;29;20041;-82
2021/09/03 03:28:28;;;;;;;33.72;24.77;;;22.70;99.10;;;;;;4862605;29;20033;-82
2021/09/03 03:30:53;;;;;;;29.30;24.38;;;22.70;99.20;;;;;;4879773;29;20040;-82
2021/09/03 03:33:19;;;;;;;29.52;23.92;;;22.70;99.20;;;;;;4879556;29;20033;-82
2021/09/03 03:35:45;;;;;;;31.05;24.27;;;22.70;99.20;;;;;;4879756;29;20041;-82
2021/09/03 03:38:11;;;;;;;27.70;23.92;;;22.70;99.40;;;;;;4879530;29;20055;-82
2021/09/03 03:40:36;;;;;;;28.38;23.27;;;22.70;99.20;;;;;;4879094;29;20044;-82
2021/09/03 03:43:02;;;;;;;28.73;23.98;;;22.70;99.20;;;;;;4862904;29;20037;-82
2021/09/03 03:45:28;;;;;;;30.67;24.52;;;22.70;99.20;;;;;;4878833;29;20033;-82
2021/09/03 03:47:53;;;;;;;29.73;23.40;;;22.70;99.20;;;;;;4862472;29;20428;-82
2021/09/03 03:50:19;;;;;;;27.48;23.17;;;22.70;99.20;;;;;;4879024;29;20135;-83
2021/09/03 03:52:44;;;;;;;27.95;22.70;;;22.70;99.10;;;;;;4879072;29;20040;-81
2021/09/03 03:55:10;;;;;;;28.80;22.67;;;22.70;99.10;;;;;;4862444;29;20084;-82
2021/09/03 03:57:36;;;;;;;26.92;21.92;;;22.70;99.20;;;;;;4862492;29;20112;-82
2021/09/03 04:00:03;;;;;;;29.52;23.15;;;22.70;99.10;;;;;;4862549;29;20064;-82
2021/09/03 04:02:29;;;;;;;27.70;22.30;;;22.70;99.20;;;;;;4878849;29;20040;-82
2021/09/03 04:04:54;;;;;;;28.55;23.25;;;22.70;99.20;;;;;;4878997;29;20531;-82
2021/09/03 04:07:20;;;;;;;26.77;21.92;;;22.70;99.20;;;;;;4862109;29;20033;-83
2021/09/03 04:09:46;;;;;;;27.48;21.67;;;22.70;99.10;;;;;;4862646;29;20033;-83
2021/09/03 04:12:11;;;;;;;28.13;22.23;;;22.70;99.20;;;;;;4879191;29;20128;-81
2021/09/03 04:14:37;;;;;;;27.48;22.60;;;22.70;99.20;;;;;;4878508;29;20096;-82
2021/09/03 04:17:03;;;;;;;27.95;22.20;;;22.70;99.10;;;;;;4862478;29;20044;-82
2021/09/03 04:19:29;;;;;;;25.85;21.38;;;22.70;99.10;;;;;;4846838;29;20041;-82
2021/09/03 04:21:54;;;;;;;23.02;19.65;;;22.70;99.10;;;;;;4846517;29;20499;-82
2021/09/03 04:24:20;;;;;;;24.17;19.38;;;22.70;99.10;;;;;;4862220;29;20207;-82
2021/09/03 04:26:45;;;;;;;24.60;20.83;;;22.70;99.20;;;;;;4863848;29;20391;-82
2021/09/03 04:29:11;;;;;;;25.95;19.95;;;22.70;99.10;;;;;;4882498;29;20452;-82
2021/09/03 04:31:37;;;;;;;25.73;20.42;;;22.70;99.10;;;;;;4882370;29;20037;-82
2021/09/03 04:34:02;;;;;;;23.08;19.70;;;22.70;99.10;;;;;;4882582;29;20111;-82
2021/09/03 04:36:28;;;;;;;24.23;19.73;;;22.70;99.10;;;;;;4882621;29;20037;-82
2021/09/03 04:38:53;;;;;;;23.30;19.17;;;22.70;99.10;;;;;;4882524;29;20040;-82
2021/09/03 04:41:19;;;;;;;24.45;19.63;;;22.70;99.10;;;;;;4882209;29;20048;-82
2021/09/03 04:43:45;;;;;;;22.10;18.00;;;22.70;99.20;;;;;;4865432;29;20029;-82
2021/09/03 04:46:10;;;;;;;22.98;19.08;;;22.70;99.10;;;;;;4865707;29;20096;-82
2021/09/03 04:48:36;;;;;;;25.55;19.13;;;22.70;99.10;;;;;;4881913;29;20424;-82
2021/09/03 04:51:02;;;;;;;21.92;17.70;;;22.70;99.20;;;;;;4865678;29;20476;-82
2021/09/03 04:53:27;;;;;;;22.38;18.50;;;22.70;99.20;;;;;;4881962;29;20048;-82
2021/09/03 04:55:53;;;;;;;24.40;18.50;;;22.70;99.20;;;;;;4882047;29;20036;-82
2021/09/03 04:58:19;;;;;;;24.17;18.70;;;22.70;99.20;;;;;;4882249;29;20029;-82
2021/09/03 05:00:45;;;;;;;22.75;18.17;;;22.70;99.20;;;;;;4865156;29;20739;-82
2021/09/03 05:03:11;;;;;;;22.33;18.20;;;22.70;99.10;;;;;;4865368;29;20029;-82
2021/09/03 05:05:36;;;;;;;23.17;18.20;;;22.70;99.10;;;;;;4865188;29;20416;-83
2021/09/03 05:08:04;;;;;;;22.23;17.70;;;22.70;99.20;;;;;;4865167;29;20029;-82
2021/09/03 05:10:30;;;;;;;20.20;17.23;;;22.70;99.20;;;;;;4881457;29;20029;-82
2021/09/03 05:12:56;;;;;;;20.38;17.00;;;22.70;99.20;;;;;;4865230;29;20029;-82
2021/09/03 05:15:34;;;;;;;21.00;17.42;;;22.70;99.20;;;;;;4881965;29;20030;-82
2021/09/03 05:18:00;;;;;;;21.98;16.83;;;22.70;99.20;;;;;;4882008;29;20033;-82
2021/09/03 05:20:26;;;;;;;21.17;16.95;;;22.70;99.20;;;;;;4865010;29;20040;-82
2021/09/03 05:22:51;;;;;;;19.48;15.60;;;22.70;99.20;;;;;;4864693;29;20496;-82
2021/09/03 05:25:17;;;;;;;21.23;16.05;;;22.70;99.20;;;;;;4864927;29;20408;-82
2021/09/03 05:27:43;;;;;;;22.88;16.90;;;22.70;99.20;;;;;;4881400;29;20079;-82
2021/09/03 05:30:10;;;;;;;19.98;16.17;;;22.70;99.20;;;;;;4881653;29;20040;-82
2021/09/03 05:32:37;;;;;;;17.13;14.40;;;22.70;99.20;;;;;;4881306;29;20029;-82
2021/09/03 05:35:05;;;;;;;18.15;15.38;;;22.70;99.20;;;;;;4864900;29;20029;-82
2021/09/03 05:37:31;;;;;;;17.95;14.80;;;22.70;99.20;;;;;;4864388;29;20368;-81
2021/09/03 05:39:58;;;;;;;19.50;15.40;;;22.60;99.20;;;;;;4881731;29;20036;-82
2021/09/03 05:42:24;;;;;;;17.75;14.77;;;22.70;99.30;;;;;;4881454;29;20041;-82
2021/09/03 05:44:50;;;;;;;18.88;15.23;;;22.70;99.30;;;;;;4880935;29;20130;-82
2021/09/03 05:47:16;;;;;;;17.13;14.63;;;22.70;99.30;;;;;;4848548;29;20033;-82
2021/09/03 05:49:41;;;;;;;16.48;14.15;;;22.70;99.30;;;;;;4864221;29;20085;-82
2021/09/03 05:52:07;;;;;;;18.27;14.95;;;22.70;99.30;;;;;;4864433;29;20033;-82
2021/09/03 05:54:32;;;;;;;19.83;14.57;;;22.60;99.30;;;;;;4880575;29;20112;-83
2021/09/03 05:56:58;;;;;;;17.38;14.45;;;22.70;99.30;;;;;;4864982;29;20043;-81
2021/09/03 05:59:24;;;;;;;18.55;14.82;;;22.70;99.30;;;;;;4880963;29;20089;-82
2021/09/03 06:01:50;;;;;;;17.40;14.13;;;22.70;99.30;;;;;;4864188;29;20045;-82
2021/09/03 06:04:15;;;;;;;18.98;14.13;;;22.70;99.30;;;;;;4881262;29;20527;-82
2021/09/03 06:06:41;;;;;;;19.30;14.30;;;22.70;99.30;;;;;;4849203;29;20035;-82
2021/09/03 06:09:06;;;;;;;18.33;14.25;;;22.70;99.30;;;;;;4864355;29;20029;-82
2021/09/03 06:11:32;;;;;;;18.60;14.13;;;22.70;99.30;;;;;;4880604;29;20100;-82
2021/09/03 06:13:58;;;;;;;16.77;13.20;;;22.70;99.30;;;;;;4880923;29;20071;-82
2021/09/03 06:16:24;;;;;;;16.38;13.35;;;22.70;99.30;;;;;;4864506;29;20592;-81
2021/09/03 06:18:50;;;;;;;16.40;13.93;;;22.70;99.30;;;;;;4848817;29;20033;-82
2021/09/03 06:21:17;;;;;;;17.45;13.32;;;22.70;99.30;;;;;;4880871;29;20040;-81
2021/09/03 06:23:43;;;;;;;15.98;12.73;;;22.70;99.30;;;;;;4880223;29;20532;-81
2021/09/03 06:26:09;;;;;;;14.77;12.35;;;22.70;99.30;;;;;;4880932;29;20029;-81
2021/09/03 06:28:35;;;;;;;16.20;13.30;;;22.70;99.30;;;;;;4880841;29;20345;-82
2021/09/03 06:31:00;;;;;;;16.60;13.13;;;22.70;99.30;;;;;;4880207;29;20400;-81
2021/09/03 06:33:26;;;;;;;15.30;12.38;;;22.70;99.30;;;;;;4880447;29;20044;-80
2021/09/03 06:35:52;;;;;;;14.02;11.77;;;22.70;99.30;;;;;;4880280;29;20033;-82
2021/09/03 06:38:18;;;;;;;14.18;12.15;;;22.70;99.40;;;;;;4864043;29;20456;-82
2021/09/03 06:40:43;;;;;;;15.57;11.68;;;22.70;99.40;;;;;;4847983;29;20062;-81
2021/09/03 06:43:09;;;;;;;13.30;10.48;;;22.70;99.40;;;;;;4863852;29;20052;-81
2021/09/03 06:45:34;;;;;;;16.92;12.00;;;22.60;99.40;;;;;;4880595;29;20060;-80
2021/09/03 06:48:00;;;;;;;14.95;12.05;;;22.60;99.50;;;;;;4879659;29;20387;-80
2021/09/03 06:50:26;;;;;;;15.32;12.45;;;22.70;99.50;;;;;;4879624;29;20057;-81
2021/09/03 06:52:52;;;;;;;14.68;12.27;;;22.60;99.50;;;;;;4863329;29;20475;-81
2021/09/03 06:55:17;;;;;;;14.50;11.88;;;22.60;99.50;;;;;;4863800;29;20029;-81
2021/09/03 06:57:43;;;;;;;15.40;12.55;;;22.60;99.50;;;;;;4880058;29;20033;-83
2021/09/03 07:00:10;;;;;;;16.98;12.18;;;22.70;99.50;;;;;;4879998;29;20029;-82
2021/09/03 07:02:37;;;;;;;15.63;12.57;;;22.60;99.50;;;;;;4880100;29;20041;-81
2021/09/03 07:05:02;;;;;;;15.60;13.35;;;22.70;99.50;;;;;;4879643;29;20103;-81
2021/09/03 07:07:28;;;;;;;15.18;12.68;;;22.70;99.50;;;;;;4879908;29;20471;-81
2021/09/03 07:09:54;;;;;;;17.70;12.98;;;22.70;99.50;;;;;;4879821;29;20025;-81
2021/09/03 07:12:21;;;;;;;17.92;12.88;;;22.70;99.50;;;;;;4879775;29;20040;-81
2021/09/03 07:14:46;;;;;;;15.65;11.90;;;22.70;99.60;;;;;;4879446;29;20025;-81
2021/09/03 07:17:12;;;;;;;14.70;12.13;;;22.70;99.60;;;;;;4879693;29;20033;-81
2021/09/03 07:19:38;;;;;;;15.13;12.55;;;22.70;99.60;;;;;;4879701;29;20037;-81
2021/09/03 07:22:04;;;;;;;14.52;11.75;;;22.70;99.60;;;;;;4878999;29;20036;-81
2021/09/03 07:24:31;;;;;;;13.93;11.68;;;22.70;99.60;;;;;;4862589;29;20052;-81
2021/09/03 07:26:57;;;;;;;14.15;11.98;;;22.70;99.60;;;;;;4879280;29;20116;-81
2021/09/03 07:29:23;;;;;;;16.58;11.65;;;22.70;99.60;;;;;;4879154;29;20484;-80
2021/09/03 07:31:49;;;;;;;12.88;10.70;;;22.70;99.60;;;;;;4878925;29;20043;-81
2021/09/03 07:34:14;;;;;;;12.48;9.75;;;22.70;99.80;;;;;;4862820;29;20029;-81
2021/09/03 07:36:40;;;;;;;14.32;11.20;;;22.70;99.60;;;;;;4879501;29;20502;-80
2021/09/03 07:39:06;;;;;;;13.65;10.63;;;22.70;99.60;;;;;;4878914;29;20108;-81
2021/09/03 07:41:32;;;;;;;12.55;10.13;;;22.70;99.70;;;;;;4879053;29;20041;-80
2021/09/03 07:43:58;;;;;;;15.15;10.60;;;22.70;99.70;;;;;;4878670;29;20059;-81
2021/09/03 07:46:23;;;;;;;15.88;11.18;;;22.70;99.70;;;;;;4879404;29;20037;-81
2021/09/03 07:48:49;;;;;;;14.27;11.15;;;22.70;99.80;;;;;;4879113;29;20449;-81
2021/09/03 07:51:15;;;;;;;16.98;11.48;;;22.70;99.80;;;;;;4847278;29;20561;-80
2021/09/03 07:53:41;;;;;;;14.70;11.25;;;22.70;99.80;;;;;;4878056;29;20036;-81
2021/09/03 07:56:07;;;;;;;15.93;11.45;;;22.70;99.70;;;;;;4862248;29;20044;-81
2021/09/03 07:58:33;;;;;;;14.73;10.95;;;22.70;99.70;;;;;;4847277;29;20029;-81
2021/09/03 08:01:00;;;;;;;15.40;10.93;;;22.80;99.70;;;;;;4861430;29;20049;-81
2021/09/03 08:03:26;;;;;;;14.35;11.45;;;22.80;99.70;;;;;;4879175;29;20037;-81
2021/09/03 08:05:52;;;;;;;14.60;11.18;;;22.80;99.70;;;;;;4862143;29;20502;-81
2021/09/03 08:08:17;;;;;;;16.38;10.10;;;22.80;99.70;;;;;;4879073;29;20115;-82
2021/09/03 08:10:43;;;;;;;14.68;11.07;;;22.80;99.70;;;;;;4879050;29;20040;-82
2021/09/03 08:13:09;;;;;;;13.30;9.88;;;22.90;99.70;;;;;;4878894;29;20484;-82
2021/09/03 08:15:36;;;;;;;13.52;9.90;;;22.90;99.90;;;;;;4879164;29;20037;-81
2021/09/03 08:18:02;;;;;;;12.88;9.65;;;22.90;99.70;;;;;;4878782;29;20401;-81
2021/09/03 08:20:29;;;;;;;14.02;9.65;;;22.90;99.80;;;;;;4862521;29;20041;-81
2021/09/03 08:22:55;;;;;;;12.15;9.82;;;22.90;99.90;;;;;;4878769;29;20062;-82
2021/09/03 08:25:21;;;;;;;13.02;9.85;;;22.90;99.90;;;;;;4878703;29;20049;-81
2021/09/03 08:27:51;;;;;;;13.18;9.85;;;22.90;99.90;;;;;;4862597;29;20037;-82
2021/09/03 08:30:19;;;;;;;14.75;10.55;;;22.90;99.90;;;;;;4878129;29;20065;-81
2021/09/03 08:32:46;;;;;;;14.38;10.27;;;22.90;99.90;;;;;;4862365;29;20044;-81
2021/09/03 08:35:12;;;;;;;13.27;9.60;;;22.90;99.90;;;;;;4861692;29;20132;-82
2021/09/03 08:37:39;;;;;;;17.42;10.48;;;22.90;99.90;;;;;;4878619;29;20116;-82
2021/09/03 08:40:08;;;;;;;13.23;9.90;;;22.90;99.90;;;;;;4878560;29;20112;-82
2021/09/03 08:42:36;;;;;;;11.18;9.20;;;22.90;99.90;;;;;;4862269;29;20037;-82
2021/09/03 08:45:04;;;;;;;15.40;10.00;;;23.00;99.90;;;;;;4878419;29;20033;-82
2021/09/03 08:47:29;;;;;;;13.88;9.95;;;23.00;99.90;;;;;;4878782;29;20035;-81
2021/09/03 08:49:55;;;;;;;12.68;10.07;;;23.00;99.90;;;;;;4878266;29;20116;-82
2021/09/03 08:52:20;;;;;;;12.95;10.10;;;23.00;99.90;;;;;;4878766;29;20041;-82
2021/09/03 08:54:46;;;;;;;12.65;9.57;;;23.00;99.90;;;;;;4878833;29;20033;-81
2021/09/03 08:57:13;;;;;;;12.77;9.73;;;23.00;99.90;;;;;;4861659;29;20113;-81
2021/09/03 08:59:40;;;;;;;11.32;9.30;;;23.00;99.90;;;;;;4878878;29;20029;-81
2021/09/03 09:02:12;;;;;;;14.15;9.95;;;23.00;99.90;;;;;;4861777;29;20412;-81
2021/09/03 09:04:42;;;;;;;15.10;9.30;;;23.00;99.90;;;;;;4861785;29;20021;-83
2021/09/03 09:07:09;;;;;;;13.02;9.73;;;23.00;99.90;;;;;;4878522;29;20037;-82
2021/09/03 09:09:40;;;;;;;12.88;9.27;;;23.00;99.90;;;;;;4878527;29;20500;-81
2021/09/03 09:12:11;;;;;;;12.43;9.02;;;23.00;99.90;;;;;;4879224;29;20080;-81
2021/09/03 09:15:03;;;;;;;10.40;8.80;;;22.90;99.90;;;;;;4881954;29;20037;-81
2021/09/03 09:17:37;;;;;;;13.48;9.32;;;22.90;99.90;;;;;;4864838;29;20096;-81
2021/09/03 09:20:08;;;;;;;12.85;9.95;;;22.90;99.90;;;;;;4881626;29;20033;-81
2021/09/03 09:22:57;;;;;;;13.32;9.35;;;22.90;99.90;;;;;;4881754;29;20053;-81
2021/09/03 09:25:25;;;;;;;11.52;8.77;;;22.90;99.90;;;;;;4881585;29;20061;-80
2021/09/03 09:27:51;;;;;;;11.10;8.50;;;23.00;99.90;;;;;;4881492;29;20112;-80
2021/09/03 09:30:28;;;;;;;11.60;8.38;;;23.00;99.90;;;;;;4881574;29;20128;-81
2021/09/03 09:33:15;;;;;;;14.00;9.07;;;23.00;99.90;;;;;;4865088;29;20025;-80
2021/09/03 09:35:49;;;;;;;11.05;8.60;;;23.00;99.80;;;;;;4881816;29;20044;-81
2021/09/03 09:38:16;;;;;;;11.70;7.95;;;23.00;99.70;;;;;;4881479;29;20096;-81
2021/09/03 09:40:56;;;;;;;10.82;7.57;;;23.00;99.60;;;;;;4881569;29;20037;-81
2021/09/03 09:43:31;;;;;;;11.40;7.68;;;23.00;99.60;;;;;;4881375;29;20112;-81
2021/09/03 09:46:26;;;;;;;9.75;7.78;;;23.10;99.60;;;;;;4881658;29;20032;-81
2021/09/03 09:48:52;;;;;;;11.50;8.20;;;23.10;99.50;;;;;;4881476;29;20033;-81
2021/09/03 09:51:38;;;;;;;11.55;7.93;;;23.10;99.40;;;;;;4881174;29;20040;-81
2021/09/03 09:54:09;;;;;;;9.20;7.55;;;23.10;99.40;;;;;;4881231;29;20032;-82
2021/09/03 09:56:39;;;;;;;10.20;7.63;;;23.10;99.30;;;;;;4864744;29;20154;-83
2021/09/03 09:59:06;;;;;;;11.80;7.72;;;23.20;99.30;;;;;;4881159;29;20029;-82
2021/09/03 10:01:36;;;;;;;10.07;7.82;;;23.20;99.30;;;;;;4881131;29;20115;-82
2021/09/03 10:04:08;;;;;;;10.48;7.55;;;23.20;99.20;;;;;;4880751;29;20116;-88
2021/09/03 10:06:35;;;;;;;11.27;7.95;;;23.20;99.10;;;;;;4880948;29;20029;-82
2021/09/03 10:09:03;;;;;;;8.80;7.57;;;23.20;99.10;;;;;;4880982;29;20071;-81
2021/09/03 10:11:29;;;;;;;9.27;6.88;;;23.20;99.00;;;;;;4880938;29;20039;-82
2021/09/03 10:13:56;;;;;;;9.75;7.65;;;23.20;99.00;;;;;;4881156;29;20077;-81
2021/09/03 10:16:22;;;;;;;8.57;7.32;;;23.20;98.90;;;;;;4863749;29;20835;-81
2021/09/03 10:18:54;;;;;;;10.27;7.47;;;23.20;98.90;;;;;;4880844;29;20033;-81
2021/09/03 10:21:25;;;;;;;10.02;6.93;;;23.20;98.90;;;;;;4880243;29;20044;-81
2021/09/03 10:24:05;;;;;;;9.52;7.00;;;23.30;98.90;;;;;;4879695;29;20088;-83
2021/09/03 10:26:37;;;;;;;8.73;6.93;;;23.20;98.90;;;;;;4880525;29;20041;-82
2021/09/03 10:29:18;;;;;;;9.75;7.50;;;23.30;98.80;;;;;;4880637;29;20033;-82
2021/09/03 10:32:05;;;;;;;7.78;6.53;;;23.30;98.90;;;;;;4880464;29;20037;-82
2021/09/03 10:34:40;;;;;;;9.50;6.82;;;23.30;98.80;;;;;;4864093;29;20449;-82
2021/09/03 10:37:12;;;;;;;9.00;7.07;;;23.30;98.80;;;;;;4862491;29;20369;-82
2021/09/03 10:39:53;;;;;;;10.90;6.90;;;23.30;98.80;;;;;;4880441;29;20072;-81
2021/09/03 10:45:05;;;;;;;8.65;6.78;;;23.30;98.80;;;;;;4880386;29;20033;-82
2021/09/03 10:47:32;;;;;;;11.15;7.35;;;23.30;98.80;;;;;;4880254;29;20029;-81
2021/09/03 10:49:59;;;;;;;9.57;6.95;;;23.30;98.80;;;;;;4863768;29;20036;-82
2021/09/03 10:52:24;;;;;;;7.88;7.00;;;23.30;98.80;;;;;;4863428;29;20052;-81
2021/09/03 10:54:51;;;;;;;8.45;6.28;;;23.40;98.80;;;;;;4880352;29;20037;-82
2021/09/03 10:57:17;;;;;;;9.38;6.75;;;23.30;98.80;;;;;;4879782;29;20044;-82
2021/09/03 11:00:14;;;;;;;8.75;7.38;;;23.30;98.80;;;;;;4880467;29;20033;-82
2021/09/03 11:02:39;;;;;;;8.75;6.43;;;23.30;98.80;;;;;;4879878;29;20543;-81
2021/09/03 11:05:12;;;;;;;9.50;6.60;;;23.30;98.70;;;;;;4879736;29;20120;-81
2021/09/03 11:07:47;;;;;;;9.18;6.65;;;23.30;98.80;;;;;;4880110;29;20029;-81
2021/09/03 11:10:21;;;;;;;8.88;6.75;;;23.30;98.70;;;;;;4879553;29;20029;-82
2021/09/03 11:12:51;;;;;;;10.30;6.85;;;23.30;98.80;;;;;;4879758;29;20107;-82
2021/09/03 11:15:17;;;;;;;8.68;6.40;;;23.30;98.80;;;;;;4879807;29;20033;-82
2021/09/03 11:17:44;;;;;;;10.82;6.88;;;23.30;98.70;;;;;;4880044;29;20033;-81
2021/09/03 11:20:10;;;;;;;8.65;6.63;;;23.40;98.80;;;;;;4879600;29;20034;-81
2021/09/03 11:22:38;;;;;;;8.25;6.75;;;23.40;98.70;;;;;;4878446;29;20476;-82
2021/09/03 11:25:07;;;;;;;9.57;6.80;;;23.40;98.70;;;;;;4879889;29;20086;-82
2021/09/03 11:27:34;;;;;;;7.80;6.53;;;23.40;98.70;;;;;;4878883;29;20120;-81
2021/09/03 11:30:19;;;;;;;9.52;6.47;;;23.40;98.70;;;;;;4879794;29;20029;-81
2021/09/03 11:32:46;;;;;;;10.32;6.70;;;23.40;98.70;;;;;;4880122;29;20116;-81
2021/09/03 11:35:13;;;;;;;8.68;6.68;;;23.40;98.70;;;;;;4879674;29;20085;-87
2021/09/03 11:37:44;;;;;;;9.00;6.93;;;23.40;98.70;;;;;;4879644;29;20051;-81
2021/09/03 11:40:20;;;;;;;10.27;7.97;;;23.40;98.70;;;;;;4879636;29;20033;-81
2021/09/03 11:42:58;;;;;;;9.25;6.05;;;23.40;98.70;;;;;;4879436;29;20037;-81
2021/09/03 11:45:32;;;;;;;9.93;6.72;;;23.40;98.70;;;;;;4862562;29;20036;-80
2021/09/03 11:48:07;;;;;;;7.65;6.15;;;23.40;98.70;;;;;;4879171;29;20108;-81
2021/09/03 11:50:42;;;;;;;8.65;6.32;;;23.40;98.70;;;;;;4862396;29;20025;-80
2021/09/03 11:53:15;;;;;;;10.07;6.55;;;23.40;98.70;;;;;;4862752;29;20031;-80
2021/09/03 11:55:47;;;;;;;8.68;6.43;;;23.40;98.70;;;;;;4861264;29;20117;-80
2021/09/03 11:58:14;;;;;;;8.63;6.90;;;23.40;98.80;;;;;;4879611;29;20021;-80
2021/09/03 12:00:48;;;;;;;8.50;6.47;;;23.40;98.70;;;;;;4879186;29;20058;-81
2021/09/03 12:03:20;;;;;;;8.70;6.78;;;23.40;98.70;;;;;;4879313;29;20033;-81
2021/09/03 12:05:47;;;;;;;8.63;6.15;;;23.40;98.70;;;;;;4879329;29;20033;-81
2021/09/03 12:08:16;;;;;;;9.35;7.30;;;23.40;98.70;;;;;;4862510;29;20363;-80
2021/09/03 12:10:53;;;;;;;8.25;6.90;;;23.40;98.80;;;;;;4879353;29;20036;-81
2021/09/03 12:13:24;;;;;;;8.55;6.72;;;23.40;98.80;;;;;;4879256;29;20032;-80
2021/09/03 12:16:05;;;;;;;9.18;7.15;;;23.40;98.80;;;;;;4879477;29;20100;-80
2021/09/03 12:18:45;;;;;;;10.00;6.40;;;23.40;98.80;;;;;;4863964;29;20030;-82
2021/09/03 12:21:30;;;;;;;10.65;6.78;;;23.40;98.80;;;;;;4879122;29;20078;-82
2021/09/03 12:23:59;;;;;;;10.05;7.22;;;23.40;98.80;;;;;;4878894;29;20053;-81
2021/09/03 12:26:36;;;;;;;8.30;6.60;;;23.40;98.80;;;;;;4879007;29;20031;-82
2021/09/03 12:29:07;;;;;;;10.68;6.90;;;23.40;98.80;;;;;;4862345;29;20041;-82
2021/09/03 12:31:33;;;;;;;9.75;7.07;;;23.40;98.80;;;;;;4878741;29;20093;-82
2021/09/03 12:34:12;;;;;;;8.85;6.90;;;23.40;98.80;;;;;;4879543;29;20028;-81
2021/09/03 12:36:41;;;;;;;10.85;7.30;;;23.40;98.80;;;;;;4862371;29;20025;-82